createdAt,value
2019-03-21T00:00:18.640Z,14.33
2019-03-21T00:02:47.064Z,12.70
2019-03-21T00:05:15.744Z,13.83
2019-03-21T00:07:44.161Z,16.25
2019-03-21T00:10:30.192Z,15.32
2019-03-21T00:12:58.716Z,14.75
2019-03-21T00:15:48.098Z,13.30
2019-03-21T00:18:17.053Z,14.68
2019-03-21T00:20:45.480Z,13.58
2019-03-21T00:23:13.913Z,14.68
2019-03-21T00:25:42.413Z,11.25
2019-03-21T00:28:10.835Z,12.00
2019-03-21T00:30:39.268Z,10.70
2019-03-21T00:33:07.682Z,13.28
2019-03-21T00:35:38.512Z,15.98
2019-03-21T00:38:06.261Z,16.45
2019-03-21T00:40:43.974Z,14.30
2019-03-21T00:43:13.464Z,13.50
2019-03-21T00:45:42.040Z,13.28
2019-03-21T00:48:16.142Z,12.15
2019-03-21T00:50:44.600Z,12.18
2019-03-21T00:53:13.005Z,14.05
2019-03-21T00:55:44.601Z,17.52
2019-03-21T00:58:12.985Z,13.08
2019-03-21T01:00:47.210Z,13.05
2019-03-21T01:03:15.710Z,13.68
2019-03-21T01:05:44.321Z,13.78
2019-03-21T01:08:12.714Z,16.20
2019-03-21T01:10:41.117Z,14.20
2019-03-21T01:13:09.585Z,10.32
2019-03-21T01:15:37.991Z,13.32
2019-03-21T01:18:06.425Z,10.15
2019-03-21T01:20:34.824Z,10.88
2019-03-21T01:23:03.252Z,11.08
2019-03-21T01:25:43.788Z,14.70
2019-03-21T01:28:12.217Z,10.35
2019-03-21T01:30:40.715Z,15.28
2019-03-21T01:33:09.149Z,11.63
2019-03-21T01:35:38.719Z,13.22
2019-03-21T01:38:07.136Z,10.63
2019-03-21T01:40:41.504Z,11.08
2019-03-21T01:43:09.931Z,9.05
2019-03-21T01:45:38.345Z,10.90
2019-03-21T01:48:06.792Z,9.20
2019-03-21T01:50:39.872Z,17.20
2019-03-21T01:53:08.379Z,13.95
2019-03-21T01:55:36.793Z,12.90
2019-03-21T01:58:05.763Z,9.63
2019-03-21T02:00:42.339Z,9.28
2019-03-21T02:03:10.839Z,9.05
2019-03-21T02:05:39.255Z,9.00
2019-03-21T02:08:07.669Z,13.22
2019-03-21T02:10:36.459Z,11.95
2019-03-21T02:13:04.965Z,8.95
2019-03-21T02:15:33.467Z,9.53
2019-03-21T02:18:01.904Z,8.43
2019-03-21T02:20:30.415Z,9.78
2019-03-21T02:22:58.833Z,10.90
2019-03-21T02:25:34.801Z,9.58
2019-03-21T02:28:03.458Z,8.75
2019-03-21T02:30:37.304Z,10.63
2019-03-21T02:33:28.749Z,9.73
2019-03-21T02:35:57.185Z,10.18
2019-03-21T02:38:25.627Z,10.35
2019-03-21T02:40:57.282Z,11.12
2019-03-21T02:43:25.730Z,9.17
2019-03-21T02:45:54.154Z,13.75
2019-03-21T02:48:22.570Z,9.30
2019-03-21T02:50:51.004Z,14.25
2019-03-21T02:53:19.426Z,8.90
2019-03-21T02:55:47.873Z,12.18
2019-03-21T02:58:16.277Z,10.23
2019-03-21T03:00:45.851Z,9.28
2019-03-21T03:03:14.436Z,9.68
2019-03-21T03:05:42.870Z,11.38
2019-03-21T03:08:11.420Z,8.60
2019-03-21T03:10:57.193Z,15.23
2019-03-21T03:13:25.618Z,9.85
2019-03-21T03:15:54.068Z,8.98
2019-03-21T03:18:24.590Z,12.00
2019-03-21T03:20:53.103Z,9.15
2019-03-21T03:23:21.592Z,10.98
2019-03-21T03:25:51.189Z,9.28
2019-03-21T03:28:23.034Z,11.75
2019-03-21T03:30:53.725Z,13.88
2019-03-21T03:33:22.210Z,13.20
2019-03-21T03:35:50.692Z,8.93
2019-03-21T03:38:19.132Z,11.30
2019-03-21T03:40:50.408Z,9.85
2019-03-21T03:43:18.830Z,9.65
2019-03-21T03:45:47.268Z,9.70
2019-03-21T03:48:15.696Z,12.37
2019-03-21T03:50:44.242Z,10.23
2019-03-21T03:53:12.677Z,11.75
2019-03-21T03:55:41.109Z,12.80
2019-03-21T03:58:12.106Z,12.70
2019-03-21T04:00:40.602Z,10.43
2019-03-21T04:03:09.051Z,12.68
2019-03-21T04:05:37.528Z,10.03
2019-03-21T04:08:06.421Z,9.98
2019-03-21T04:10:40.075Z,10.90
2019-03-21T04:13:16.988Z,10.68
2019-03-21T04:15:52.444Z,11.97
2019-03-21T04:18:17.157Z,10.23
2019-03-21T04:20:51.418Z,11.40
2019-03-21T04:23:22.305Z,11.83
2019-03-21T04:25:59.295Z,14.78
2019-03-21T04:28:27.744Z,11.55
2019-03-21T04:30:56.154Z,43.28
2019-03-21T04:33:24.669Z,86.50
2019-03-21T04:35:53.096Z,71.37
2019-03-21T04:38:21.710Z,32.33
2019-03-21T04:40:50.132Z,22.07
2019-03-21T04:43:18.564Z,15.90
2019-03-21T04:45:47.055Z,13.22
2019-03-21T04:48:15.501Z,13.93
2019-03-21T04:50:43.913Z,14.65
2019-03-21T04:53:12.414Z,14.73
2019-03-21T04:55:41.078Z,11.08
2019-03-21T04:58:09.523Z,10.88
2019-03-21T05:00:42.280Z,10.30
2019-03-21T05:03:13.182Z,9.60
2019-03-21T05:05:41.614Z,8.63
2019-03-21T05:08:10.120Z,11.85
2019-03-21T05:10:38.539Z,9.63
2019-03-21T05:13:06.977Z,12.47
2019-03-21T05:15:45.934Z,14.13
2019-03-21T05:18:37.021Z,13.08
2019-03-21T05:21:08.656Z,12.65
2019-03-21T05:23:37.111Z,12.07
2019-03-21T05:26:05.810Z,12.05
2019-03-21T05:28:34.269Z,10.25
2019-03-21T05:31:05.827Z,14.58
2019-03-21T05:33:34.270Z,12.95
2019-03-21T05:36:02.689Z,16.57
2019-03-21T05:38:32.765Z,10.05
2019-03-21T05:41:01.208Z,13.68
2019-03-21T05:43:35.940Z,10.30
2019-03-21T05:46:04.437Z,9.28
2019-03-21T05:48:32.859Z,11.57
2019-03-21T05:51:01.319Z,14.30
2019-03-21T05:53:29.744Z,17.67
2019-03-21T05:55:58.182Z,18.87
2019-03-21T05:58:26.608Z,16.48
2019-03-21T06:00:59.883Z,12.47
2019-03-21T06:03:31.371Z,16.67
2019-03-21T06:06:16.866Z,9.65
2019-03-21T06:08:44.777Z,13.13
2019-03-21T06:11:13.236Z,9.98
2019-03-21T06:13:41.646Z,12.90
2019-03-21T06:16:12.798Z,15.23
2019-03-21T06:19:01.995Z,14.10
2019-03-21T06:21:39.348Z,10.70
2019-03-21T06:24:16.704Z,11.40
2019-03-21T06:26:51.481Z,13.53
2019-03-21T06:29:19.888Z,9.83
2019-03-21T06:31:48.332Z,11.38
2019-03-21T06:34:16.762Z,12.05
2019-03-21T06:36:45.195Z,9.35
2019-03-21T06:39:13.686Z,13.43
2019-03-21T06:41:42.182Z,13.30
2019-03-21T06:44:10.604Z,14.85
2019-03-21T06:46:48.994Z,14.35
2019-03-21T06:49:09.174Z,13.90
2019-03-21T06:51:37.617Z,13.62
2019-03-21T06:54:06.029Z,15.20
2019-03-21T06:56:34.461Z,13.62
2019-03-21T06:59:02.882Z,13.43
2019-03-21T07:01:31.308Z,12.63
2019-03-21T07:04:07.024Z,11.68
2019-03-21T07:06:29.886Z,12.70
2019-03-21T07:08:58.289Z,11.57
2019-03-21T07:11:26.757Z,10.35
2019-03-21T07:13:55.239Z,10.08
2019-03-21T07:16:23.649Z,13.93
2019-03-21T07:18:52.130Z,9.40
2019-03-21T07:21:20.569Z,13.45
2019-03-21T07:23:49.005Z,9.73
2019-03-21T07:26:17.433Z,18.85
2019-03-21T07:28:45.872Z,15.05
2019-03-21T07:31:14.281Z,9.98
2019-03-21T07:33:42.737Z,15.43
2019-03-21T07:36:11.150Z,15.98
2019-03-21T07:38:39.642Z,11.60
2019-03-21T07:41:08.072Z,13.95
2019-03-21T07:43:36.505Z,13.55
2019-03-21T07:46:04.929Z,13.53
2019-03-21T07:48:33.369Z,13.45
2019-03-21T07:51:02.247Z,16.00
2019-03-21T07:53:30.692Z,14.58
2019-03-21T07:55:59.189Z,14.98
2019-03-21T07:58:27.604Z,13.35
2019-03-21T08:00:56.020Z,15.40
2019-03-21T08:03:24.453Z,12.35
2019-03-21T08:05:52.865Z,15.05
2019-03-21T08:08:21.362Z,16.57
2019-03-21T08:10:49.807Z,34.10
2019-03-21T08:13:18.220Z,33.53
2019-03-21T08:15:46.670Z,21.27
2019-03-21T08:18:15.071Z,20.30
2019-03-21T08:20:43.507Z,16.95
2019-03-21T08:23:11.996Z,17.55
2019-03-21T08:25:40.432Z,14.33
2019-03-21T08:28:08.853Z,16.32
2019-03-21T08:30:40.366Z,12.65
2019-03-21T08:33:08.852Z,22.82
2019-03-21T08:35:37.352Z,18.17
2019-03-21T08:38:05.790Z,16.82
2019-03-21T08:40:34.228Z,14.10
2019-03-21T08:43:02.636Z,12.28
2019-03-21T08:45:31.061Z,12.95
2019-03-21T08:47:59.470Z,17.65
2019-03-21T08:50:27.912Z,19.48
2019-03-21T08:52:56.334Z,14.98
2019-03-21T08:55:24.826Z,15.03
2019-03-21T08:57:53.249Z,10.25
2019-03-21T09:00:21.753Z,11.18
2019-03-21T09:02:50.192Z,9.78
2019-03-21T09:05:18.633Z,10.13
2019-03-21T09:07:47.073Z,10.70
2019-03-21T09:10:15.583Z,8.95
2019-03-21T09:12:44.016Z,9.50
2019-03-21T09:15:12.579Z,8.58
2019-03-21T09:17:41.001Z,12.80
2019-03-21T09:20:09.750Z,9.10
2019-03-21T09:22:38.191Z,9.00
2019-03-21T09:25:07.180Z,6.95
2019-03-21T09:27:35.727Z,10.08
2019-03-21T09:30:07.482Z,13.13
2019-03-21T09:32:35.993Z,11.70
2019-03-21T09:35:07.244Z,12.33
2019-03-21T09:37:35.673Z,6.53
2019-03-21T09:40:07.055Z,6.33
2019-03-21T09:42:35.485Z,9.48
2019-03-21T09:45:06.536Z,10.23
2019-03-21T09:47:34.966Z,8.73
2019-03-21T09:50:05.117Z,9.33
2019-03-21T09:52:33.567Z,10.13
2019-03-21T09:55:01.996Z,10.00
2019-03-21T09:57:30.433Z,8.60
2019-03-21T09:59:58.856Z,9.28
2019-03-21T10:02:27.301Z,8.08
2019-03-21T10:04:55.766Z,10.23
2019-03-21T10:07:24.219Z,10.20
2019-03-21T10:09:52.665Z,10.08
2019-03-21T10:12:21.104Z,12.85
2019-03-21T10:14:49.540Z,10.30
2019-03-21T10:17:17.977Z,11.43
2019-03-21T10:19:48.381Z,10.75
2019-03-21T10:22:16.557Z,7.75
2019-03-21T10:24:44.992Z,10.43
2019-03-21T10:27:13.424Z,8.55
2019-03-21T10:29:41.861Z,7.50
2019-03-21T10:32:14.524Z,9.28
2019-03-21T10:34:40.454Z,9.30
2019-03-21T10:37:08.881Z,9.73
2019-03-21T10:39:37.317Z,8.70
2019-03-21T10:42:05.757Z,10.68
2019-03-21T10:44:34.179Z,15.53
2019-03-21T10:47:02.606Z,10.40
2019-03-21T10:49:31.033Z,11.88
2019-03-21T10:51:59.480Z,8.65
2019-03-21T10:54:27.898Z,9.10
2019-03-21T10:56:56.333Z,10.60
2019-03-21T10:59:24.768Z,9.15
2019-03-21T11:01:53.207Z,9.45
2019-03-21T11:04:21.621Z,12.47
2019-03-21T11:06:53.138Z,11.48
2019-03-21T11:09:21.560Z,14.40
2019-03-21T11:11:50.078Z,9.45
2019-03-21T11:14:18.578Z,10.78
2019-03-21T11:16:47.013Z,16.45
2019-03-21T11:19:15.433Z,14.43
2019-03-21T11:21:43.871Z,12.53
2019-03-21T11:24:12.296Z,11.55
2019-03-21T11:26:40.809Z,10.45
2019-03-21T11:29:09.238Z,11.28
2019-03-21T11:31:37.665Z,9.68
2019-03-21T11:34:06.140Z,7.70
2019-03-21T11:36:38.526Z,12.25
2019-03-21T11:39:07.441Z,10.48
2019-03-21T11:41:36.013Z,13.75
2019-03-21T11:44:04.579Z,11.28
2019-03-21T11:46:33.031Z,12.23
2019-03-21T11:49:01.452Z,15.18
2019-03-21T11:51:29.865Z,15.40
2019-03-21T11:53:58.304Z,13.43
2019-03-21T11:56:26.756Z,14.45
2019-03-21T11:58:55.254Z,11.57
2019-03-21T12:01:23.679Z,10.10
2019-03-21T12:03:52.105Z,12.85
2019-03-21T12:06:20.538Z,9.73
2019-03-21T12:08:48.976Z,10.68
2019-03-21T12:11:17.470Z,10.13
2019-03-21T12:13:45.904Z,7.72
2019-03-21T12:16:14.317Z,9.20
2019-03-21T12:18:42.764Z,8.53
2019-03-21T12:21:11.198Z,12.45
2019-03-21T12:23:39.651Z,12.82
2019-03-21T12:26:08.071Z,8.80
2019-03-21T12:28:36.504Z,10.55
2019-03-21T12:31:04.942Z,11.30
2019-03-21T12:33:33.397Z,9.00
2019-03-21T12:36:01.861Z,9.75
2019-03-21T12:38:30.365Z,8.60
2019-03-21T12:40:58.790Z,8.88
2019-03-21T12:43:27.242Z,8.33
2019-03-21T12:45:55.658Z,8.88
2019-03-21T12:48:24.080Z,12.58
2019-03-21T12:50:52.514Z,8.95
2019-03-21T12:53:20.953Z,8.75
2019-03-21T12:55:49.393Z,9.93
2019-03-21T12:58:17.894Z,7.00
2019-03-21T13:00:46.333Z,8.83
2019-03-21T13:03:14.756Z,7.10
2019-03-21T13:05:43.355Z,10.85
2019-03-21T13:08:11.844Z,8.35
2019-03-21T13:10:40.340Z,9.38
2019-03-21T13:13:08.905Z,8.10
2019-03-21T13:15:37.421Z,8.53
2019-03-21T13:18:06.372Z,8.85
2019-03-21T13:20:34.818Z,6.62
2019-03-21T13:23:03.393Z,6.05
2019-03-21T13:25:31.825Z,7.22
2019-03-21T13:28:00.244Z,9.15
2019-03-21T13:30:28.766Z,5.62
2019-03-21T13:32:57.212Z,7.55
2019-03-21T13:35:32.580Z,8.13
2019-03-21T13:37:55.778Z,8.55
2019-03-21T13:40:24.297Z,7.00
2019-03-21T13:42:52.716Z,6.17
2019-03-21T13:45:21.180Z,6.20
2019-03-21T13:47:49.647Z,6.50
2019-03-21T13:50:18.107Z,11.48
2019-03-21T13:52:47.425Z,10.30
2019-03-21T13:55:15.928Z,7.20
2019-03-21T13:57:44.341Z,6.12
2019-03-21T14:00:18.402Z,10.68
2019-03-21T14:02:46.863Z,8.40
2019-03-21T14:05:15.339Z,7.87
2019-03-21T14:07:43.856Z,8.13
2019-03-21T14:10:12.412Z,10.18
2019-03-21T14:12:40.849Z,8.68
2019-03-21T14:15:12.112Z,9.35
2019-03-21T14:17:40.542Z,9.45
2019-03-21T14:20:10.789Z,9.00
2019-03-21T14:22:39.236Z,9.03
2019-03-21T14:25:07.792Z,8.78
2019-03-21T14:27:36.287Z,7.72
2019-03-21T14:30:07.353Z,6.72
2019-03-21T14:32:35.813Z,9.00
2019-03-21T14:35:08.573Z,9.58
2019-03-21T14:37:37.081Z,7.03
2019-03-21T14:40:07.863Z,6.20
2019-03-21T14:42:36.384Z,9.60
2019-03-21T14:45:07.240Z,8.10
2019-03-21T14:47:36.533Z,10.08
2019-03-21T14:50:07.366Z,10.13
2019-03-21T14:52:35.800Z,8.55
2019-03-21T14:55:05.766Z,6.50
2019-03-21T14:57:34.264Z,7.17
2019-03-21T15:00:02.950Z,7.78
2019-03-21T15:02:31.398Z,10.23
2019-03-21T15:04:59.795Z,7.47
2019-03-21T15:07:28.245Z,14.07
2019-03-21T15:09:56.673Z,8.38
2019-03-21T15:12:25.084Z,8.40
2019-03-21T15:14:53.525Z,9.73
2019-03-21T15:17:21.954Z,7.05
2019-03-21T15:19:50.385Z,9.13
2019-03-21T15:22:18.798Z,8.40
2019-03-21T15:24:47.246Z,7.35
2019-03-21T15:27:15.678Z,6.42
2019-03-21T15:29:44.130Z,9.68
2019-03-21T15:32:12.533Z,6.25
2019-03-21T15:34:40.972Z,7.08
2019-03-21T15:37:09.396Z,11.40
2019-03-21T15:39:37.833Z,8.23
2019-03-21T15:42:06.245Z,7.53
2019-03-21T15:44:34.684Z,7.70
2019-03-21T15:47:03.101Z,6.45
2019-03-21T15:49:31.550Z,7.55
2019-03-21T15:52:00.039Z,7.40
2019-03-21T15:54:28.485Z,8.28
2019-03-21T15:56:56.905Z,8.58
2019-03-21T15:59:25.352Z,6.67
2019-03-21T16:01:53.773Z,11.05
2019-03-21T16:04:22.230Z,7.97
2019-03-21T16:06:50.677Z,4.47
2019-03-21T16:09:19.151Z,7.08
2019-03-21T16:11:47.563Z,7.92
2019-03-21T16:14:15.991Z,6.00
2019-03-21T16:16:44.448Z,8.50
2019-03-21T16:19:12.861Z,31.48
2019-03-21T16:21:41.306Z,20.80
2019-03-21T16:24:09.734Z,8.65
2019-03-21T16:26:38.179Z,9.63
2019-03-21T16:29:06.680Z,10.03
2019-03-21T16:31:35.184Z,10.72
2019-03-21T16:34:03.616Z,8.70
2019-03-21T16:36:32.051Z,7.22
2019-03-21T16:39:00.474Z,6.53
2019-03-21T16:41:28.903Z,7.75
2019-03-21T16:43:57.326Z,7.05
2019-03-21T16:46:25.753Z,8.05
2019-03-21T16:48:54.177Z,11.05
2019-03-21T16:51:22.643Z,8.30
2019-03-21T16:53:51.066Z,6.40
2019-03-21T16:56:19.523Z,6.37
2019-03-21T16:58:47.945Z,8.23
2019-03-21T17:01:16.391Z,7.30
2019-03-21T17:03:44.814Z,7.47
2019-03-21T17:06:13.273Z,5.75
2019-03-21T17:08:41.877Z,7.65
2019-03-21T17:11:10.306Z,6.70
2019-03-21T17:13:38.753Z,8.35
2019-03-21T17:16:07.164Z,7.62
2019-03-21T17:18:35.628Z,10.90
2019-03-21T17:21:04.224Z,6.58
2019-03-21T17:23:32.837Z,10.20
2019-03-21T17:26:01.274Z,7.92
2019-03-21T17:28:29.767Z,5.25
2019-03-21T17:30:58.176Z,7.17
2019-03-21T17:33:26.629Z,7.15
2019-03-21T17:35:55.060Z,8.50
2019-03-21T17:38:23.496Z,8.45
2019-03-21T17:40:51.951Z,6.42
2019-03-21T17:43:20.383Z,9.75
2019-03-21T17:45:48.804Z,5.33
2019-03-21T17:48:17.260Z,10.78
2019-03-21T17:50:45.743Z,9.40
2019-03-21T17:53:14.189Z,6.97
2019-03-21T17:55:42.701Z,8.08
2019-03-21T17:58:11.153Z,8.90
2019-03-21T18:00:39.655Z,9.58
2019-03-21T18:03:08.104Z,9.95
2019-03-21T18:05:36.517Z,9.18
2019-03-21T18:08:05.045Z,11.25
2019-03-21T18:10:34.497Z,9.40
2019-03-21T18:13:03.372Z,15.28
2019-03-21T18:15:31.959Z,9.75
2019-03-21T18:18:00.455Z,10.32
2019-03-21T18:20:28.885Z,11.18
2019-03-21T18:22:57.455Z,7.33
2019-03-21T18:25:25.901Z,8.83
2019-03-21T18:27:54.449Z,12.05
2019-03-21T18:30:22.959Z,5.92
2019-03-21T18:32:51.470Z,10.05
2019-03-21T18:35:19.991Z,10.53
2019-03-21T18:37:48.418Z,7.37
2019-03-21T18:40:16.923Z,15.75
2019-03-21T18:42:45.365Z,13.90
2019-03-21T18:45:15.363Z,10.95
2019-03-21T18:47:43.823Z,10.63
2019-03-21T18:50:16.434Z,8.63
2019-03-21T18:52:44.925Z,8.13
2019-03-21T18:55:13.485Z,5.28
2019-03-21T18:57:41.905Z,11.97
2019-03-21T19:00:13.525Z,8.70
2019-03-21T19:02:41.959Z,7.95
2019-03-21T19:05:10.533Z,11.18
2019-03-21T19:07:38.997Z,19.95
2019-03-21T19:10:09.745Z,17.55
2019-03-21T19:12:38.169Z,17.05
2019-03-21T19:15:08.921Z,11.20
2019-03-21T19:17:37.428Z,15.23
2019-03-21T19:20:08.601Z,16.50
2019-03-21T19:22:37.151Z,21.27
2019-03-21T19:25:17.872Z,12.25
2019-03-21T19:27:37.938Z,8.33
2019-03-21T19:30:12.175Z,12.85
2019-03-21T19:32:40.626Z,7.90
2019-03-21T19:35:09.614Z,62.43
2019-03-21T19:37:38.073Z,114.00
2019-03-21T19:40:11.275Z,42.45
2019-03-21T19:42:39.693Z,13.43
2019-03-21T19:45:13.611Z,67.40
2019-03-21T19:47:42.037Z,32.17
2019-03-21T19:50:13.016Z,23.90
2019-03-21T19:52:41.528Z,16.62
2019-03-21T19:55:10.227Z,17.90
2019-03-21T19:57:38.661Z,12.47
2019-03-21T20:00:15.975Z,13.03
2019-03-21T20:02:44.481Z,13.68
2019-03-21T20:05:13.150Z,10.25
2019-03-21T20:07:41.644Z,29.95
2019-03-21T20:10:12.453Z,28.77
2019-03-21T20:12:40.891Z,33.45
2019-03-21T20:15:14.129Z,48.60
2019-03-21T20:17:42.634Z,26.70
2019-03-21T20:20:16.060Z,51.05
2019-03-21T20:22:44.555Z,20.97
2019-03-21T20:25:13.314Z,37.25
2019-03-21T20:27:41.940Z,36.63
2019-03-21T20:30:16.242Z,20.37
2019-03-21T20:32:44.767Z,15.32
2019-03-21T20:35:13.561Z,17.98
2019-03-21T20:37:41.989Z,26.12
2019-03-21T20:40:12.569Z,20.30
2019-03-21T20:42:40.981Z,21.37
2019-03-21T20:45:11.965Z,25.05
2019-03-21T20:47:40.399Z,23.07
2019-03-21T20:50:10.104Z,20.27
2019-03-21T20:52:38.518Z,23.35
2019-03-21T20:55:07.702Z,64.25
2019-03-21T20:57:36.204Z,63.70
2019-03-21T21:00:10.377Z,44.38
2019-03-21T21:02:38.830Z,32.17
2019-03-21T21:05:07.636Z,25.00
2019-03-21T21:07:36.073Z,42.83
2019-03-21T21:10:06.970Z,14.55
2019-03-21T21:12:35.474Z,15.65
2019-03-21T21:15:06.164Z,16.90
2019-03-21T21:17:34.630Z,18.20
2019-03-21T21:20:04.807Z,13.13
2019-03-21T21:22:33.239Z,13.13
2019-03-21T21:25:01.658Z,17.45
2019-03-21T21:27:30.108Z,13.25
2019-03-21T21:29:58.537Z,12.70
2019-03-21T21:32:27.057Z,14.23
2019-03-21T21:34:55.469Z,15.72
2019-03-21T21:37:23.932Z,14.80
2019-03-21T21:39:52.377Z,14.73
2019-03-21T21:42:20.868Z,12.45
2019-03-21T21:44:49.283Z,13.25
2019-03-21T21:47:17.747Z,10.25
2019-03-21T21:49:46.150Z,14.13
2019-03-21T21:52:14.666Z,12.37
2019-03-21T21:54:43.098Z,14.55
2019-03-21T21:57:11.540Z,83.10
2019-03-21T21:59:39.974Z,41.83
2019-03-21T22:02:08.421Z,18.73
2019-03-21T22:04:36.851Z,20.48
2019-03-21T22:07:05.349Z,15.85
2019-03-21T22:09:33.780Z,12.58
2019-03-21T22:12:02.199Z,13.68
2019-03-21T22:14:30.665Z,12.93
2019-03-21T22:16:59.076Z,12.13
2019-03-21T22:19:27.529Z,15.13
2019-03-21T22:21:55.957Z,14.87
2019-03-21T22:24:24.425Z,14.23
2019-03-21T22:26:52.846Z,15.30
2019-03-21T22:29:21.289Z,16.17
2019-03-21T22:31:49.723Z,12.05
2019-03-21T22:34:19.102Z,12.98
2019-03-21T22:36:49.565Z,15.03
2019-03-21T22:39:20.428Z,14.28
2019-03-21T22:41:48.848Z,14.60
2019-03-21T22:44:17.325Z,14.38
2019-03-21T22:46:45.714Z,14.63
2019-03-21T22:49:14.220Z,11.80
2019-03-21T22:51:42.643Z,12.60
2019-03-21T22:54:11.129Z,16.00
2019-03-21T22:56:41.565Z,19.50
2019-03-21T22:59:09.701Z,14.68
2019-03-21T23:01:38.185Z,14.60
2019-03-21T23:04:06.679Z,16.65
2019-03-21T23:06:35.116Z,9.43
2019-03-21T23:09:04.903Z,11.08
2019-03-21T23:11:33.326Z,12.90
2019-03-21T23:14:01.828Z,11.70
2019-03-21T23:16:30.256Z,13.90
2019-03-21T23:18:58.670Z,11.90
2019-03-21T23:21:27.179Z,11.88
2019-03-21T23:23:55.590Z,16.52
2019-03-21T23:26:24.025Z,12.00
2019-03-21T23:28:52.440Z,12.82
2019-03-21T23:31:20.868Z,14.55
2019-03-21T23:33:49.302Z,15.95
2019-03-21T23:36:17.744Z,13.10
2019-03-21T23:38:46.153Z,15.58
2019-03-21T23:41:14.596Z,14.00
2019-03-21T23:43:43.048Z,16.95
2019-03-21T23:46:11.453Z,12.43
2019-03-21T23:48:39.878Z,13.10
2019-03-21T23:51:08.364Z,10.15
2019-03-21T23:53:36.788Z,10.38
2019-03-21T23:56:05.231Z,11.93
2019-03-21T23:58:33.652Z,12.60
